Time;durP1;ratioP1;P1;durP2;ratioP2;P2;SDS_P1;SDS_P2;PMS_P1;PMS_P2;Temp;Humidity;BMP_temperature;BMP_pressure;BME280_temperature;BME280_humidity;BME280_pressure;Samples;Min_cycle;Max_cycle;Signal;HPM_P1;HPM_P2
2023/02/14 00:01:58;;;;;;;24.48;14.77;;;;;;;;;;4924754;29;20305;-96
2023/02/14 00:04:26;;;;;;;27.67;15.40;;;;;;;;;;4913569;29;20424;-96
2023/02/14 00:06:55;;;;;;;29.23;16.70;;;;;;;;;;4933558;29;20048;-96
2023/02/14 00:12:17;;;;;;;35.80;17.50;;;;;;;;;;4961963;23;20027;-96
2023/02/14 00:23:06;;;;;;;42.40;19.50;;;;;;;;;;4939804;29;20048;-95
2023/02/14 00:25:35;;;;;;;33.85;17.88;;;;;;;;;;4940883;29;20304;-94
2023/02/14 00:28:01;;;;;;;33.88;16.80;;;;;;;;;;4940903;29;20032;-96
2023/02/14 00:33:44;;;;;;;26.58;14.35;;;;;;;;;;4940827;29;20042;-96
2023/02/14 00:36:11;;;;;;;30.40;15.85;;;;;;;;;;4940647;29;20032;-94
2023/02/14 00:39:02;;;;;;;30.35;17.48;;;;;;;;;;4932850;29;20107;-95
2023/02/14 00:41:28;;;;;;;26.08;14.20;;;;;;;;;;4952454;29;20032;-96
2023/02/14 00:43:55;;;;;;;26.50;14.18;;;;;;;;;;4948467;23;20059;-94
2023/02/14 00:46:40;;;;;;;23.00;13.15;;;;;;;;;;4940973;29;20024;-95
2023/02/14 00:49:06;;;;;;;22.00;12.60;;;;;;;;;;4923903;29;20042;-95
2023/02/14 00:51:32;;;;;;;28.60;15.20;;;;;;;;;;4940569;29;20433;-96
2023/02/14 00:53:58;;;;;;;24.20;13.32;;;;;;;;;;4923729;29;20032;-95
2023/02/14 00:56:24;;;;;;;24.58;13.98;;;;;;;;;;4940672;29;20032;-96
2023/02/14 00:58:50;;;;;;;28.13;17.20;;;;;;;;;;4923691;29;20028;-95
2023/02/14 01:04:33;;;;;;;24.42;14.48;;;;;;;;;;4940364;29;20165;-95
2023/02/14 01:06:59;;;;;;;26.77;13.75;;;;;;;;;;4924488;29;20031;-96
2023/02/14 01:09:25;;;;;;;24.77;13.98;;;;;;;;;;4932509;29;20119;-92
2023/02/14 01:11:52;;;;;;;25.70;14.15;;;;;;;;;;4930423;29;20036;-94
2023/02/14 01:14:18;;;;;;;29.25;15.75;;;;;;;;;;4951254;29;20031;-95
2023/02/14 01:19:47;;;;;;;27.23;14.23;;;;;;;;;;4944274;29;20026;-95
2023/02/14 01:22:13;;;;;;;25.58;14.05;;;;;;;;;;4944463;29;20091;-94
2023/02/14 01:24:42;;;;;;;25.15;15.60;;;;;;;;;;4927336;29;20428;-94
2023/02/14 01:27:08;;;;;;;25.67;15.68;;;;;;;;;;4939893;29;20092;-94
2023/02/14 01:29:34;;;;;;;31.70;16.30;;;;;;;;;;4924937;29;20028;-94
2023/02/14 01:35:17;;;;;;;28.00;17.05;;;;;;;;;;4924944;29;20140;-95
2023/02/14 01:37:43;;;;;;;26.80;16.85;;;;;;;;;;4908103;29;20042;-94
2023/02/14 01:40:11;;;;;;;29.75;16.90;;;;;;;;;;4924833;29;20028;-93
2023/02/14 01:42:37;;;;;;;30.55;18.27;;;;;;;;;;4908037;29;20051;-95
2023/02/14 01:45:08;;;;;;;29.05;16.60;;;;;;;;;;4924989;29;20028;-96
2023/02/14 01:50:40;;;;;;;28.77;16.23;;;;;;;;;;4924995;29;20445;-94
2023/02/14 01:53:12;;;;;;;28.92;16.85;;;;;;;;;;4907985;29;20028;-93
2023/02/14 01:55:41;;;;;;;26.15;14.98;;;;;;;;;;4907951;29;20024;-96
2023/02/14 01:58:07;;;;;;;21.83;14.30;;;;;;;;;;4907791;29;20032;-94
2023/02/14 02:03:40;;;;;;;22.17;13.02;;;;;;;;;;4924613;29;20039;-94
2023/02/14 02:06:12;;;;;;;20.88;12.32;;;;;;;;;;4907851;29;20115;-95
2023/02/14 02:08:40;;;;;;;18.17;11.90;;;;;;;;;;4925033;29;20116;-95
2023/02/14 02:11:21;;;;;;;21.08;12.40;;;;;;;;;;4913892;29;20028;-96
2023/02/14 02:13:47;;;;;;;20.02;12.75;;;;;;;;;;4924606;29;20040;-94
2023/02/14 02:16:23;;;;;;;18.70;11.82;;;;;;;;;;4924254;29;20135;-96
2023/02/14 02:21:43;;;;;;;24.90;13.77;;;;;;;;;;5044808;23;20078;-94
2023/02/14 02:24:09;;;;;;;18.25;12.18;;;;;;;;;;4943839;29;20028;-95
2023/02/14 02:26:55;;;;;;;20.45;12.25;;;;;;;;;;4954120;29;20349;-95
2023/02/14 02:29:40;;;;;;;20.55;12.98;;;;;;;;;;4926602;29;20040;-94
2023/02/14 02:32:13;;;;;;;23.08;13.27;;;;;;;;;;4926146;29;20032;-94
2023/02/14 02:34:57;;;;;;;24.63;12.10;;;;;;;;;;4942805;29;20043;-95
2023/02/14 02:37:42;;;;;;;22.52;12.43;;;;;;;;;;4942810;29;20044;-95
2023/02/14 02:40:14;;;;;;;20.13;12.20;;;;;;;;;;4943330;29;20059;-94
2023/02/14 02:42:55;;;;;;;24.27;11.93;;;;;;;;;;4925659;29;20035;-92
2023/02/14 02:48:25;;;;;;;22.42;12.10;;;;;;;;;;4942720;29;20035;-94
2023/02/14 02:54:32;;;;;;;19.75;12.18;;;;;;;;;;4953023;29;20335;-95
2023/02/14 02:57:02;;;;;;;22.27;12.45;;;;;;;;;;4855346;29;20366;-95
2023/02/14 02:59:33;;;;;;;18.15;11.50;;;;;;;;;;4839706;29;20050;-96
2023/02/14 03:05:05;;;;;;;22.35;12.52;;;;;;;;;;4853335;29;20077;-95
2023/02/14 03:07:37;;;;;;;20.65;12.02;;;;;;;;;;4848138;29;20033;-96
2023/02/14 03:10:14;;;;;;;24.38;14.13;;;;;;;;;;4847366;29;20034;-95
2023/02/14 03:12:50;;;;;;;24.73;14.02;;;;;;;;;;4847360;29;20116;-95
2023/02/14 03:15:16;;;;;;;29.55;16.27;;;;;;;;;;4831729;29;20030;-95
2023/02/14 03:21:03;;;;;;;23.08;13.15;;;;;;;;;;4849807;29;20128;-95
2023/02/14 03:23:32;;;;;;;18.73;11.65;;;;;;;;;;4849674;29;20033;-94
2023/02/14 03:26:16;;;;;;;23.05;13.23;;;;;;;;;;4850404;29;20030;-95
2023/02/14 04:12:35;;;;;;;;;;;;;;;;;;5371921;23;20058;-94
2023/02/14 04:15:01;;;;;;;33.00;16.75;;;;;;;;;;4928612;29;19910;-94
2023/02/14 04:23:53;;;;;;;26.80;14.88;;;;;;;;;;4940909;29;20338;-95
2023/02/14 04:26:19;;;;;;;28.20;15.30;;;;;;;;;;4940693;29;20101;-94
2023/02/14 04:28:45;;;;;;;25.33;14.02;;;;;;;;;;4941229;29;20036;-94
2023/02/14 04:34:15;;;;;;;21.95;13.32;;;;;;;;;;4942256;29;20042;-94
2023/02/14 04:36:41;;;;;;;24.45;13.20;;;;;;;;;;4923808;29;20034;-95
2023/02/14 04:39:07;;;;;;;22.23;13.13;;;;;;;;;;4941744;29;20031;-94
2023/02/14 04:41:33;;;;;;;22.88;12.15;;;;;;;;;;4941999;29;20043;-94
2023/02/14 04:43:59;;;;;;;21.40;12.27;;;;;;;;;;4925216;29;20067;-95
2023/02/14 04:46:26;;;;;;;22.35;12.73;;;;;;;;;;4941684;29;20028;-95
2023/02/14 04:48:52;;;;;;;22.58;13.00;;;;;;;;;;4925256;29;20379;-94
2023/02/14 04:51:19;;;;;;;22.42;12.88;;;;;;;;;;4928796;29;20024;-95
2023/02/14 04:56:21;;;;;;;21.88;12.95;;;;;;;;;;5949291;23;20031;-95
2023/02/14 04:58:47;;;;;;;21.05;13.13;;;;;;;;;;4938679;29;20036;-95
2023/02/14 05:01:13;;;;;;;21.48;11.50;;;;;;;;;;4940302;29;20418;-95
2023/02/14 05:03:39;;;;;;;22.20;12.68;;;;;;;;;;4940239;29;20042;-94
2023/02/14 05:06:05;;;;;;;19.83;11.45;;;;;;;;;;4940339;29;20417;-95
2023/02/14 05:08:31;;;;;;;21.05;11.15;;;;;;;;;;4940593;29;20028;-94
2023/02/14 05:10:57;;;;;;;17.85;11.02;;;;;;;;;;4940422;29;20020;-94
2023/02/14 05:13:23;;;;;;;20.90;11.85;;;;;;;;;;4940535;29;20071;-95
2023/02/14 05:15:49;;;;;;;19.55;11.20;;;;;;;;;;4941263;29;20038;-95
2023/02/14 05:18:15;;;;;;;20.08;12.35;;;;;;;;;;4940503;29;20040;-96
2023/02/14 05:20:41;;;;;;;19.55;11.07;;;;;;;;;;4940139;29;20486;-96
2023/02/14 05:23:12;;;;;;;20.95;12.18;;;;;;;;;;4923573;29;20063;-95
2023/02/14 05:25:40;;;;;;;23.05;13.43;;;;;;;;;;4940387;29;20032;-95
2023/02/14 05:28:06;;;;;;;21.15;12.20;;;;;;;;;;4912006;29;20080;-95
2023/02/14 05:30:32;;;;;;;22.95;12.10;;;;;;;;;;4904927;29;20422;-95
2023/02/14 05:36:02;;;;;;;25.25;12.60;;;;;;;;;;4921640;29;20431;-96
2023/02/14 05:38:29;;;;;;;22.77;12.52;;;;;;;;;;4906718;29;20040;-96
2023/02/14 05:40:55;;;;;;;22.80;13.02;;;;;;;;;;4924798;29;20032;-96
2023/02/14 05:43:25;;;;;;;18.50;12.13;;;;;;;;;;4908063;29;20115;-96
2023/02/14 06:08:51;;;;;;;;;;;;;;;;;;5322685;23;20075;-93
2023/02/14 06:11:17;;;;;;;26.63;14.50;;;;;;;;;;4935624;29;19911;-94
2023/02/14 06:13:43;;;;;;;29.95;14.00;;;;;;;;;;4907223;29;20343;-93
2023/02/14 06:16:09;;;;;;;28.85;14.38;;;;;;;;;;4940641;29;20071;-92
2023/02/14 06:18:36;;;;;;;27.10;14.60;;;;;;;;;;4942992;29;20032;-95
2023/02/14 06:21:02;;;;;;;25.13;14.10;;;;;;;;;;4942876;29;20027;-94
2023/02/14 06:23:28;;;;;;;29.25;14.63;;;;;;;;;;4942891;29;20035;-95
2023/02/14 06:25:54;;;;;;;27.80;15.10;;;;;;;;;;4920621;29;20080;-94
2023/02/14 06:28:20;;;;;;;30.08;15.00;;;;;;;;;;4920217;29;20036;-94
2023/02/14 06:30:46;;;;;;;29.15;14.73;;;;;;;;;;4926051;29;20028;-94
2023/02/14 06:33:12;;;;;;;28.73;14.15;;;;;;;;;;4925975;29;20027;-95
2023/02/14 06:35:38;;;;;;;34.60;18.15;;;;;;;;;;4942283;29;20407;-95
2023/02/14 06:38:04;;;;;;;37.08;17.88;;;;;;;;;;4925896;29;20039;-94
2023/02/14 06:40:30;;;;;;;26.55;14.27;;;;;;;;;;4943934;29;20044;-95
2023/02/14 06:42:56;;;;;;;30.05;14.45;;;;;;;;;;4926773;29;20061;-95
2023/02/14 06:45:23;;;;;;;27.35;14.40;;;;;;;;;;4943212;29;20036;-93
2023/02/14 06:47:49;;;;;;;28.48;15.13;;;;;;;;;;4907355;29;20051;-93
2023/02/14 06:50:15;;;;;;;27.98;13.95;;;;;;;;;;4926306;29;20407;-94
2023/02/14 06:52:41;;;;;;;26.98;14.48;;;;;;;;;;4908190;29;20075;-93
2023/02/14 06:55:10;;;;;;;25.77;14.52;;;;;;;;;;4916704;29;20027;-92
2023/02/14 06:57:36;;;;;;;30.98;15.43;;;;;;;;;;4925778;29;20163;-93
2023/02/14 07:00:02;;;;;;;49.03;20.90;;;;;;;;;;4942400;29;20032;-92
2023/02/14 07:05:51;;;;;;;41.63;19.25;;;;;;;;;;4942156;29;20043;-94
2023/02/14 07:08:17;;;;;;;43.55;20.55;;;;;;;;;;4925405;29;20052;-93
2023/02/14 07:10:43;;;;;;;36.38;18.23;;;;;;;;;;4924595;29;20035;-92
2023/02/14 07:13:09;;;;;;;30.88;16.48;;;;;;;;;;4942684;29;20053;-93
2023/02/14 07:15:35;;;;;;;30.75;16.30;;;;;;;;;;4941736;29;20151;-94
2023/02/14 07:23:59;;;;;;;28.88;15.93;;;;;;;;;;4954043;23;20051;-95
2023/02/14 07:26:54;;;;;;;34.08;16.98;;;;;;;;;;4955484;29;20028;-96
2023/02/14 07:29:55;;;;;;;46.53;24.40;;;;;;;;;;4936336;29;20292;-96
2023/02/14 07:32:42;;;;;;;90.57;43.28;;;;;;;;;;4822233;29;20050;-96
2023/02/14 07:35:09;;;;;;;100.30;54.15;;;;;;;;;;4817511;29;20041;-94
2023/02/14 07:37:35;;;;;;;69.78;37.25;;;;;;;;;;4829022;29;20596;-94
2023/02/14 07:40:01;;;;;;;36.10;20.58;;;;;;;;;;4815847;29;20046;-95
2023/02/14 07:42:27;;;;;;;36.05;20.83;;;;;;;;;;4831876;29;20045;-95
2023/02/14 07:44:55;;;;;;;35.28;20.48;;;;;;;;;;4825689;29;20062;-95
2023/02/14 07:47:21;;;;;;;33.42;19.92;;;;;;;;;;4812011;29;20184;-94
2023/02/14 07:49:47;;;;;;;34.78;22.88;;;;;;;;;;4810510;29;20047;-94
2023/02/14 07:52:14;;;;;;;32.13;19.85;;;;;;;;;;4827788;29;20121;-93
2023/02/14 07:54:40;;;;;;;31.73;17.90;;;;;;;;;;4812717;29;20034;-94
2023/02/14 07:57:06;;;;;;;30.80;18.55;;;;;;;;;;4827596;29;20121;-94
2023/02/14 07:59:32;;;;;;;31.23;17.30;;;;;;;;;;4819503;29;20030;-94
2023/02/14 08:01:58;;;;;;;32.65;18.65;;;;;;;;;;4826744;29;20050;-94
2023/02/14 08:04:25;;;;;;;32.83;18.48;;;;;;;;;;4809624;29;20031;-93
2023/02/14 08:06:51;;;;;;;31.48;18.40;;;;;;;;;;4809432;29;20039;-94
2023/02/14 08:09:23;;;;;;;36.97;22.45;;;;;;;;;;4897829;29;20304;-95
2023/02/14 08:14:41;;;;;;;41.90;22.83;;;;;;;;;;4922850;29;20050;-95
2023/02/14 08:17:08;;;;;;;35.05;20.17;;;;;;;;;;4922526;29;20032;-94
2023/02/14 08:19:35;;;;;;;35.25;18.80;;;;;;;;;;4924138;29;20036;-94
2023/02/14 08:22:01;;;;;;;29.17;16.92;;;;;;;;;;4905200;29;20431;-93
2023/02/14 08:24:27;;;;;;;29.23;17.52;;;;;;;;;;4900874;29;20071;-92
2023/02/14 08:26:54;;;;;;;23.52;14.88;;;;;;;;;;4924982;29;20032;-95
2023/02/14 08:29:20;;;;;;;26.42;15.93;;;;;;;;;;4922440;29;20024;-93
2023/02/14 08:31:47;;;;;;;25.20;15.95;;;;;;;;;;4921599;29;20024;-92
2023/02/14 08:34:14;;;;;;;23.75;15.52;;;;;;;;;;4921705;29;20071;-92
2023/02/14 08:36:40;;;;;;;23.40;13.88;;;;;;;;;;4903120;29;20175;-92
2023/02/14 08:39:06;;;;;;;23.00;14.07;;;;;;;;;;4904953;29;20028;-94
2023/02/14 08:41:32;;;;;;;23.35;15.20;;;;;;;;;;4921668;29;20028;-93
2023/02/14 08:43:59;;;;;;;21.48;14.35;;;;;;;;;;4904759;29;20111;-94
2023/02/14 08:46:25;;;;;;;25.00;15.73;;;;;;;;;;4920707;29;20032;-92
2023/02/14 08:48:52;;;;;;;26.92;15.13;;;;;;;;;;4903756;29;20024;-95
2023/02/14 08:51:19;;;;;;;41.03;20.05;;;;;;;;;;4920879;29;20036;-95
2023/02/14 08:53:45;;;;;;;90.40;40.38;;;;;;;;;;4917405;29;20336;-93
2023/02/14 08:56:13;;;;;;;36.28;20.40;;;;;;;;;;4921545;29;20085;-93
2023/02/14 08:58:39;;;;;;;39.53;21.98;;;;;;;;;;4921444;29;20351;-94
2023/02/14 09:01:09;;;;;;;29.50;17.90;;;;;;;;;;4922895;29;20050;-92
2023/02/14 09:03:36;;;;;;;24.58;16.13;;;;;;;;;;4922352;29;20036;-96
2023/02/14 09:06:04;;;;;;;28.30;18.08;;;;;;;;;;4929937;29;20060;-95
2023/02/14 09:08:30;;;;;;;27.17;16.65;;;;;;;;;;4906888;29;20020;-91
2023/02/14 09:10:57;;;;;;;33.13;17.40;;;;;;;;;;4921412;29;20438;-94
2023/02/14 09:13:29;;;;;;;32.80;19.58;;;;;;;;;;4905197;29;20063;-93
2023/02/14 09:15:55;;;;;;;55.40;32.40;;;;;;;;;;4922478;29;20036;-94
2023/02/14 09:30:31;;;;;;;;;;;;;;;;;;1499635;23;20332;-97
2023/02/14 09:33:04;;;;;;;230.52;87.40;;;;;;;;;;4912844;29;19983;-96
2023/02/14 09:43:33;;;;;;;60.53;29.45;;;;;;;;;;5235201;23;20079;-95
2023/02/14 09:46:01;;;;;;;51.00;22.13;;;;;;;;;;4933281;29;20422;-88
2023/02/14 09:48:49;;;;;;;54.40;29.20;;;;;;;;;;5007731;23;20052;-94
2023/02/14 09:51:42;;;;;;;31.60;18.60;;;;;;;;;;4949830;29;20031;-95
2023/02/14 10:04:59;;;;;;;45.60;23.88;;;;;;;;;;1322390;23;20327;-95
2023/02/14 10:07:51;;;;;;;34.20;20.50;;;;;;;;;;4912190;29;20065;-96
2023/02/14 10:10:29;;;;;;;31.02;17.75;;;;;;;;;;4833485;29;20083;-94
2023/02/14 10:13:12;;;;;;;31.52;18.73;;;;;;;;;;4834194;29;20069;-96
2023/02/14 10:45:52;;;;;;;34.25;19.75;;;;;;;;;;2302866;23;20313;-94
2023/02/14 11:24:59;;;;;;;45.60;24.90;;;;;;;;;;5669881;23;20043;31
2023/02/14 11:27:27;;;;;;;34.22;19.77;;;;;;;;;;4894253;29;20443;-94
2023/02/14 11:45:27;;;;;;;38.08;22.75;;;;;;;;;;4888908;29;20112;-94
2023/02/14 11:48:12;;;;;;;35.72;21.13;;;;;;;;;;4890266;29;20036;-96
2023/02/14 11:50:38;;;;;;;33.03;18.95;;;;;;;;;;4873954;29;20029;-94
2023/02/14 11:53:09;;;;;;;32.67;19.52;;;;;;;;;;4884192;29;20021;-91
2023/02/14 11:55:35;;;;;;;59.50;29.38;;;;;;;;;;4885315;29;20056;-92
2023/02/14 11:58:02;;;;;;;83.35;37.92;;;;;;;;;;4884485;29;20081;-94
2023/02/14 12:00:30;;;;;;;46.65;24.27;;;;;;;;;;4868658;29;20129;-93
2023/02/14 12:02:57;;;;;;;41.17;21.80;;;;;;;;;;4870119;29;20035;-86
2023/02/14 12:05:25;;;;;;;42.40;22.67;;;;;;;;;;4884455;29;20036;-89
2023/02/14 12:07:56;;;;;;;48.90;24.45;;;;;;;;;;4884862;29;20021;-86
2023/02/14 12:10:26;;;;;;;32.60;19.85;;;;;;;;;;4881630;29;20408;-90
2023/02/14 12:12:56;;;;;;;57.85;27.80;;;;;;;;;;4878770;29;20037;-92
2023/02/14 12:15:25;;;;;;;41.35;22.77;;;;;;;;;;4868475;29;20421;-93
2023/02/14 12:17:56;;;;;;;43.15;23.05;;;;;;;;;;4866000;29;20074;-94
2023/02/14 12:20:26;;;;;;;31.15;19.23;;;;;;;;;;4851068;29;20036;-93
2023/02/14 12:22:57;;;;;;;50.33;24.10;;;;;;;;;;4873917;29;20082;-92
2023/02/14 12:25:30;;;;;;;54.00;25.55;;;;;;;;;;4868483;29;20033;-85
2023/02/14 12:28:00;;;;;;;39.40;21.25;;;;;;;;;;4864760;29;20033;-86
2023/02/14 12:30:27;;;;;;;33.40;19.38;;;;;;;;;;4873876;29;20017;-86
2023/02/14 12:32:55;;;;;;;31.55;19.42;;;;;;;;;;4867137;29;20076;-86
2023/02/14 12:35:33;;;;;;;27.95;19.02;;;;;;;;;;4872014;29;20029;-86
2023/02/14 12:38:08;;;;;;;27.70;17.20;;;;;;;;;;4865514;29;20036;-87
2023/02/14 12:40:50;;;;;;;32.03;17.73;;;;;;;;;;4868763;29;20026;-86
2023/02/14 12:43:19;;;;;;;27.42;17.40;;;;;;;;;;4883423;29;20037;-86
2023/02/14 12:45:57;;;;;;;33.72;19.77;;;;;;;;;;4879706;29;20033;-86
2023/02/14 12:48:29;;;;;;;29.23;17.60;;;;;;;;;;4868318;29;20290;-87
2023/02/14 12:51:13;;;;;;;26.63;16.98;;;;;;;;;;4876702;29;20044;-87
2023/02/14 12:53:48;;;;;;;29.95;18.73;;;;;;;;;;4870984;29;20329;-95
2023/02/14 12:56:14;;;;;;;41.20;24.70;;;;;;;;;;4851453;29;20420;-93
2023/02/14 12:58:46;;;;;;;39.30;23.30;;;;;;;;;;4864242;29;20036;-94
2023/02/14 13:01:32;;;;;;;30.10;20.25;;;;;;;;;;4862408;29;20061;-96
2023/02/14 13:04:19;;;;;;;31.70;19.17;;;;;;;;;;4869110;29;20185;-91
2023/02/14 13:06:54;;;;;;;34.70;20.08;;;;;;;;;;4889659;29;20026;-93
2023/02/14 13:09:23;;;;;;;34.10;18.30;;;;;;;;;;4869270;29;20025;-95
2023/02/14 13:12:08;;;;;;;49.95;26.48;;;;;;;;;;4849844;29;20041;-95
2023/02/14 13:14:46;;;;;;;50.30;30.85;;;;;;;;;;4849579;29;20436;-95
2023/02/14 13:17:21;;;;;;;53.90;30.45;;;;;;;;;;4849398;29;20033;-96
2023/02/14 13:19:47;;;;;;;32.85;20.98;;;;;;;;;;4866186;29;20045;-96
2023/02/14 13:22:16;;;;;;;24.50;15.77;;;;;;;;;;4849259;29;20038;-94
2023/02/14 13:24:42;;;;;;;40.20;23.13;;;;;;;;;;4865714;29;20034;-94
2023/02/14 13:27:12;;;;;;;47.08;26.58;;;;;;;;;;4865759;29;20037;-95
2023/02/14 13:29:47;;;;;;;39.53;25.80;;;;;;;;;;4849160;29;20112;-94
2023/02/14 13:32:15;;;;;;;31.17;20.45;;;;;;;;;;4866793;29;20082;-93
2023/02/14 13:37:22;;;;;;;34.80;20.92;;;;;;;;;;4871997;29;20149;-95
2023/02/14 13:42:58;;;;;;;32.92;20.95;;;;;;;;;;4850843;29;20061;-94
2023/02/14 13:45:37;;;;;;;29.88;19.48;;;;;;;;;;4850047;29;20033;-94
2023/02/14 13:48:06;;;;;;;54.05;30.25;;;;;;;;;;4866270;29;20033;-94
2023/02/14 13:50:58;;;;;;;43.90;25.30;;;;;;;;;;4848498;29;20385;-95
2023/02/14 14:19:23;;;;;;;29.98;18.50;;;;;;;;;;5734905;24;20048;-96
2023/02/14 14:32:25;;;;;;;31.40;19.17;;;;;;;;;;5599315;23;20098;-96
2023/02/14 14:59:48;;;;;;;80.32;27.67;;;;;;;;;;964583;23;20396;-91
2023/02/14 15:20:41;;;;;;;59.60;24.00;;;;;;;;;;5018033;23;20125;-90
2023/02/14 15:23:15;;;;;;;37.03;24.30;;;;;;;;;;4944674;29;20054;-95
2023/02/14 15:25:43;;;;;;;38.25;24.77;;;;;;;;;;4946991;29;20027;-96
2023/02/14 15:28:16;;;;;;;52.85;32.28;;;;;;;;;;4926552;29;20029;-96
2023/02/14 15:30:43;;;;;;;53.13;33.92;;;;;;;;;;4925134;29;20048;-96
2023/02/14 15:33:10;;;;;;;45.80;30.45;;;;;;;;;;4927727;29;20068;-96
2023/02/14 15:35:42;;;;;;;52.97;34.08;;;;;;;;;;4927978;29;20031;-96
2023/02/14 15:57:33;;;;;;;55.88;33.88;;;;;;;;;;4970335;23;20119;-95
2023/02/14 16:00:00;;;;;;;59.05;35.85;;;;;;;;;;4933337;29;20032;-95
2023/02/14 16:13:22;;;;;;;69.57;37.60;;;;;;;;;;5216218;23;20346;-96
2023/02/14 16:31:58;;;;;;;77.15;42.40;;;;;;;;;;5504817;23;20494;-95
2023/02/14 17:21:51;;;;;;;230.68;105.10;;;;;;;;;;4974332;23;20058;-94
2023/02/14 17:34:40;;;;;;;245.75;123.75;;;;;;;;;;5775579;23;20116;-88
2023/02/14 17:37:24;;;;;;;256.63;125.82;;;;;;;;;;4944855;29;20036;-92
2023/02/14 17:39:54;;;;;;;310.30;152.00;;;;;;;;;;4946230;29;20039;-96
2023/02/14 17:45:52;;;;;;;318.13;147.85;;;;;;;;;;4942950;29;20047;-95
2023/02/14 17:48:21;;;;;;;291.45;141.82;;;;;;;;;;4929792;29;20047;-95
2023/02/14 17:51:06;;;;;;;322.10;144.10;;;;;;;;;;4933569;29;20469;-95
2023/02/14 17:53:36;;;;;;;314.10;147.38;;;;;;;;;;4952739;29;20027;-95
2023/02/14 17:56:11;;;;;;;298.98;144.13;;;;;;;;;;4953555;29;20031;-95
2023/02/14 17:58:49;;;;;;;318.08;146.85;;;;;;;;;;4936868;29;20043;-96
2023/02/14 18:06:27;;;;;;;354.42;157.65;;;;;;;;;;5448566;23;20151;-94
2023/02/14 18:09:10;;;;;;;379.70;175.93;;;;;;;;;;4944596;29;20074;-95
2023/02/14 18:12:22;;;;;;;378.50;177.13;;;;;;;;;;4950255;29;20027;-95
2023/02/14 18:14:52;;;;;;;492.40;239.73;;;;;;;;;;4895681;29;20045;-95
2023/02/14 18:17:36;;;;;;;502.02;253.45;;;;;;;;;;4880533;29;20440;-96
2023/02/14 18:20:04;;;;;;;338.83;166.30;;;;;;;;;;4873121;29;20028;-96
2023/02/14 18:22:31;;;;;;;259.13;132.25;;;;;;;;;;4869821;29;20533;-94
2023/02/14 18:24:59;;;;;;;285.15;147.15;;;;;;;;;;4869668;29;20048;-93
2023/02/14 18:27:25;;;;;;;255.57;132.38;;;;;;;;;;4869461;29;20033;-94
2023/02/14 18:29:52;;;;;;;238.60;122.93;;;;;;;;;;4869481;29;20037;-94
2023/02/14 18:32:18;;;;;;;236.48;123.53;;;;;;;;;;4885347;29;20083;-95
2023/02/14 18:34:44;;;;;;;222.40;113.88;;;;;;;;;;4884839;29;20037;-96
2023/02/14 18:37:11;;;;;;;212.95;108.85;;;;;;;;;;4884875;29;20037;-96
2023/02/14 18:39:37;;;;;;;211.05;106.03;;;;;;;;;;4869310;29;20452;-95
2023/02/14 18:42:04;;;;;;;229.75;111.90;;;;;;;;;;4884767;29;20029;-95
2023/02/14 18:44:32;;;;;;;238.25;118.78;;;;;;;;;;4871222;29;20039;-95
2023/02/14 18:46:59;;;;;;;242.85;120.05;;;;;;;;;;4943755;29;20028;-94
2023/02/14 18:49:26;;;;;;;236.20;116.57;;;;;;;;;;4926285;29;20031;-96
2023/02/14 18:51:55;;;;;;;230.98;115.63;;;;;;;;;;4944498;29;20028;-94
2023/02/14 18:54:21;;;;;;;237.07;116.68;;;;;;;;;;4926649;29;20036;-93
2023/02/14 18:56:50;;;;;;;250.38;119.22;;;;;;;;;;4926838;29;20031;-93
2023/02/14 18:59:16;;;;;;;245.13;118.18;;;;;;;;;;4917963;29;20112;-94
2023/02/14 19:01:43;;;;;;;297.38;135.20;;;;;;;;;;4908641;29;20118;-92
2023/02/14 19:04:11;;;;;;;280.40;128.57;;;;;;;;;;4909326;29;20031;-93
2023/02/14 19:07:03;;;;;;;238.93;112.70;;;;;;;;;;4906579;29;20075;-94
2023/02/14 19:09:30;;;;;;;213.07;105.78;;;;;;;;;;4890584;29;20036;-92
2023/02/14 19:11:58;;;;;;;186.05;89.75;;;;;;;;;;4908864;29;20040;-90
2023/02/14 19:14:35;;;;;;;;;;;;;;;;;;;;;
2023/02/14 19:45:12;;;;;;;131.13;68.60;;;;;;;;;;4932111;29;20063;-95
2023/02/14 19:47:42;;;;;;;152.85;77.43;;;;;;;;;;4931162;29;20032;-95
2023/02/14 19:50:17;;;;;;;163.40;84.68;;;;;;;;;;4915261;29;20032;-96
2023/02/14 19:52:50;;;;;;;190.43;99.57;;;;;;;;;;4932484;29;20084;-95
2023/02/14 19:55:23;;;;;;;208.10;106.45;;;;;;;;;;4928571;29;20032;-95
2023/02/14 20:01:30;;;;;;;152.88;77.32;;;;;;;;;;4855665;29;20034;-96
2023/02/14 20:04:14;;;;;;;;;;;;;;;;;;;;;
2023/02/14 20:07:16;;;;;;;;;;;;;;;;;;;;;
2023/02/14 20:10:14;;;;;;;;;;;;;;;;;;;;;
2023/02/14 20:16:08;;;;;;;136.07;70.25;;;;;;;;;;4783115;30;20031;-96
2023/02/14 20:18:34;;;;;;;144.48;73.00;;;;;;;;;;4781681;30;20048;-95
2023/02/14 20:21:14;;;;;;;161.85;79.53;;;;;;;;;;4776899;30;20087;-95
2023/02/14 20:23:40;;;;;;;157.95;77.55;;;;;;;;;;4776276;30;20048;-93
2023/02/14 20:26:11;;;;;;;160.38;78.70;;;;;;;;;;4773332;29;20499;-93
2023/02/14 20:28:37;;;;;;;181.85;82.20;;;;;;;;;;4759106;30;20035;-93
2023/02/14 20:31:07;;;;;;;189.00;85.50;;;;;;;;;;4755480;30;20036;-93
2023/02/14 20:33:33;;;;;;;147.52;72.93;;;;;;;;;;4755400;30;20040;-95
2023/02/14 20:36:00;;;;;;;132.05;63.40;;;;;;;;;;4755433;30;20060;-93
2023/02/14 20:38:26;;;;;;;121.45;60.20;;;;;;;;;;4779586;30;20039;-87
2023/02/14 20:40:52;;;;;;;144.75;74.78;;;;;;;;;;4802651;29;20489;-89
2023/02/14 20:43:18;;;;;;;114.60;59.90;;;;;;;;;;4809051;29;20081;-89
2023/02/14 20:45:44;;;;;;;109.72;58.88;;;;;;;;;;4809239;29;20150;-94
2023/02/14 20:48:12;;;;;;;103.78;54.47;;;;;;;;;;4802073;29;20031;-95
2023/02/14 20:50:57;;;;;;;92.22;49.05;;;;;;;;;;4794091;29;20034;-87
2023/02/14 20:53:23;;;;;;;83.25;45.15;;;;;;;;;;4859574;29;20028;-93
2023/02/14 20:55:50;;;;;;;70.95;41.85;;;;;;;;;;4900287;29;20434;-94
2023/02/14 20:58:17;;;;;;;76.97;43.33;;;;;;;;;;4900260;29;20028;-93
2023/02/14 21:00:43;;;;;;;85.03;47.25;;;;;;;;;;4900171;29;20195;-94
2023/02/14 21:03:09;;;;;;;84.72;48.17;;;;;;;;;;4895830;29;20032;-94
2023/02/14 21:05:38;;;;;;;102.57;52.47;;;;;;;;;;4893820;29;20115;-93
2023/02/14 21:08:04;;;;;;;92.43;49.25;;;;;;;;;;4885899;29;20424;-93
2023/02/14 21:10:30;;;;;;;98.00;51.63;;;;;;;;;;4901491;29;20048;-92
2023/02/14 21:12:57;;;;;;;104.93;55.60;;;;;;;;;;4901458;29;20028;-92
2023/02/14 21:15:23;;;;;;;113.63;58.90;;;;;;;;;;4902144;29;20024;-94
2023/02/14 21:17:49;;;;;;;112.13;57.88;;;;;;;;;;4885796;29;20039;-91
2023/02/14 21:20:18;;;;;;;108.38;55.55;;;;;;;;;;4885555;29;20075;-91
2023/02/14 21:22:44;;;;;;;91.90;50.92;;;;;;;;;;4901515;29;20033;-92
2023/02/14 21:25:10;;;;;;;99.25;49.78;;;;;;;;;;4887727;29;20502;-91
2023/02/14 21:27:37;;;;;;;90.35;49.13;;;;;;;;;;4905892;29;20029;-94
2023/02/14 21:30:03;;;;;;;87.45;44.85;;;;;;;;;;4897867;29;20104;-92
2023/02/14 21:32:29;;;;;;;85.05;43.42;;;;;;;;;;4871169;29;20045;-92
2023/02/14 21:34:55;;;;;;;80.22;41.92;;;;;;;;;;4870778;29;20097;-91
2023/02/14 21:37:21;;;;;;;77.25;41.58;;;;;;;;;;4887627;29;20029;-92
2023/02/14 21:39:49;;;;;;;76.90;40.58;;;;;;;;;;4876353;29;20055;-95
2023/02/14 21:42:17;;;;;;;72.47;39.80;;;;;;;;;;4905992;29;20097;-91
2023/02/14 21:47:28;;;;;;;71.63;37.42;;;;;;;;;;4887673;29;20043;-93
2023/02/14 21:52:39;;;;;;;76.95;40.80;;;;;;;;;;4887408;29;20052;-93
2023/02/14 21:55:05;;;;;;;71.60;39.88;;;;;;;;;;4887112;29;20037;-93
2023/02/14 21:57:31;;;;;;;72.20;41.45;;;;;;;;;;4887182;29;20036;-93
2023/02/14 21:59:57;;;;;;;76.10;41.67;;;;;;;;;;4887615;29;20029;-93
2023/02/14 22:02:23;;;;;;;73.40;41.45;;;;;;;;;;4905548;29;20027;-93
2023/02/14 22:04:49;;;;;;;76.95;44.88;;;;;;;;;;4905495;29;20320;-93
2023/02/14 22:10:19;;;;;;;69.35;38.95;;;;;;;;;;4905997;29;20036;-93
2023/02/14 22:12:48;;;;;;;70.43;40.20;;;;;;;;;;4888850;29;20036;-93
2023/02/14 22:15:14;;;;;;;71.07;39.88;;;;;;;;;;4905532;29;20028;-93
2023/02/14 22:17:40;;;;;;;76.88;42.50;;;;;;;;;;4905516;29;20024;-92
2023/02/14 22:20:09;;;;;;;68.22;38.78;;;;;;;;;;4888415;29;20036;-92
2023/02/14 22:22:35;;;;;;;72.65;39.67;;;;;;;;;;4905530;29;20040;-93
2023/02/14 22:25:01;;;;;;;82.53;43.80;;;;;;;;;;4905201;29;20028;-94
2023/02/14 22:27:28;;;;;;;80.63;43.88;;;;;;;;;;4874293;29;20041;-89
2023/02/14 22:29:55;;;;;;;67.22;39.28;;;;;;;;;;4870318;29;20033;-93
2023/02/14 22:32:21;;;;;;;60.28;35.40;;;;;;;;;;4905147;29;20460;-93
2023/02/14 22:34:47;;;;;;;62.45;36.13;;;;;;;;;;4888887;29;20032;-93
2023/02/14 22:40:16;;;;;;;60.90;33.05;;;;;;;;;;4905133;29;20080;-95
2023/02/14 22:42:48;;;;;;;56.22;32.17;;;;;;;;;;4904931;29;20040;-96
2023/02/14 22:45:15;;;;;;;52.45;30.88;;;;;;;;;;4905670;29;20297;-93
2023/02/14 22:47:42;;;;;;;58.67;31.55;;;;;;;;;;4916637;23;20082;-96
2023/02/14 22:50:08;;;;;;;56.13;32.13;;;;;;;;;;4933741;29;20032;-95
2023/02/14 22:55:43;;;;;;;68.75;38.67;;;;;;;;;;4942590;29;20329;-92